Time;durP1;ratioP1;P1;durP2;ratioP2;P2;SDS_P1;SDS_P2;PMS_P1;PMS_P2;Temp;Humidity;BMP_temperature;BMP_pressure;BME280_temperature;BME280_humidity;BME280_pressure;Samples;Min_cycle;Max_cycle;Signal;HPM_P1;HPM_P2
2024/03/20 00:01:44;;;;;;;136.30;87.50;;;;;;;-1.30;100.00;99617.40;108831;1251;1002449;-71
2024/03/20 00:04:10;;;;;;;134.60;84.70;;;;;;;-1.30;100.00;99616.52;108784;1251;1002160;-71
2024/03/20 00:06:36;;;;;;;139.10;84.60;;;;;;;-1.30;100.00;99615.31;109543;1250;59934;-71
2024/03/20 00:09:03;;;;;;;135.30;88.50;;;;;;;-1.31;100.00;99610.27;108849;1251;1006901;-71
2024/03/20 00:11:29;;;;;;;149.80;90.20;;;;;;;-1.30;100.00;99608.67;109541;1252;60048;-71
2024/03/20 00:13:57;;;;;;;137.30;88.00;;;;;;;-1.30;100.00;99602.77;109591;1251;59847;-71
2024/03/20 00:16:23;;;;;;;139.00;83.70;;;;;;;-1.30;100.00;99602.05;109523;1251;60127;-71
2024/03/20 00:18:50;;;;;;;136.90;87.10;;;;;;;-1.32;100.00;99603.47;109562;1250;60273;-72
2024/03/20 00:21:16;;;;;;;132.00;84.60;;;;;;;-1.35;100.00;99605.94;109553;1251;59931;-71
2024/03/20 00:23:43;;;;;;;134.90;86.20;;;;;;;-1.36;100.00;99604.02;109588;1251;59742;-72
2024/03/20 00:26:09;;;;;;;139.40;87.70;;;;;;;-1.37;100.00;99604.56;109518;1251;59869;-71
2024/03/20 00:28:36;;;;;;;136.60;82.70;;;;;;;-1.37;100.00;99606.13;109535;1251;59783;-71
2024/03/20 00:31:02;;;;;;;134.40;83.80;;;;;;;-1.41;100.00;99604.24;109433;1253;59793;-71
2024/03/20 00:33:28;;;;;;;135.80;84.80;;;;;;;-1.44;100.00;99601.66;109560;1251;59859;-71
2024/03/20 00:35:55;;;;;;;137.90;87.70;;;;;;;-1.47;100.00;99598.38;109544;1251;59936;-72
2024/03/20 00:38:21;;;;;;;150.70;92.60;;;;;;;-1.49;100.00;99595.08;109595;1251;59953;-71
2024/03/20 00:40:48;;;;;;;139.70;89.60;;;;;;;-1.50;100.00;99594.22;109551;1251;59797;-70
2024/03/20 00:43:14;;;;;;;138.30;88.50;;;;;;;-1.52;100.00;99591.63;109526;1251;60020;-71
2024/03/20 00:45:40;;;;;;;142.80;88.80;;;;;;;-1.51;100.00;99588.65;109333;1251;59946;-71
2024/03/20 00:48:07;;;;;;;131.40;84.70;;;;;;;-1.50;100.00;99589.17;109543;1251;59878;-71
2024/03/20 00:50:34;;;;;;;138.70;86.90;;;;;;;-1.53;100.00;99589.02;109544;1251;60285;-71
2024/03/20 00:53:01;;;;;;;154.40;95.50;;;;;;;-1.57;100.00;99582.77;109546;1250;60151;-71
2024/03/20 00:55:27;;;;;;;147.90;94.10;;;;;;;-1.58;100.00;99576.16;109536;1251;59864;-72
2024/03/20 00:57:53;;;;;;;141.20;88.50;;;;;;;-1.58;100.00;99571.63;109516;1251;59918;-71
2024/03/20 01:00:20;;;;;;;153.00;92.60;;;;;;;-1.55;100.00;99570.73;109546;1251;59780;-72
2024/03/20 01:02:46;;;;;;;151.00;95.80;;;;;;;-1.54;100.00;99564.61;109555;1251;59867;-71
2024/03/20 01:05:13;;;;;;;146.30;90.40;;;;;;;-1.52;100.00;99562.18;109584;1251;59701;-71
2024/03/20 01:07:43;;;;;;;136.20;87.30;;;;;;;-1.55;100.00;99559.76;109200;1251;59909;-71
2024/03/20 01:10:09;;;;;;;141.70;87.10;;;;;;;-1.60;100.00;99563.28;109540;1251;64996;-72
2024/03/20 01:12:36;;;;;;;158.30;94.40;;;;;;;-1.64;100.00;99561.58;109563;1251;59734;-71
2024/03/20 01:15:03;;;;;;;152.90;93.40;;;;;;;-1.67;100.00;99557.43;108757;1251;1003115;-72
2024/03/20 01:17:33;;;;;;;142.20;88.70;;;;;;;-1.68;100.00;99553.27;109548;1251;66532;-71
2024/03/20 01:20:01;;;;;;;148.60;90.60;;;;;;;-1.70;100.00;99555.88;109585;1250;60143;-72
2024/03/20 01:22:34;;;;;;;142.80;90.60;;;;;;;-1.72;100.00;99560.60;109554;1251;62950;-71
2024/03/20 01:25:00;;;;;;;146.80;90.10;;;;;;;-1.75;100.00;99560.98;109529;1251;60083;-72
2024/03/20 01:27:26;;;;;;;148.00;93.50;;;;;;;-1.77;100.00;99562.02;109547;1251;59894;-72
2024/03/20 01:29:53;;;;;;;150.70;97.50;;;;;;;-1.79;100.00;99565.87;109512;1251;59737;-71
2024/03/20 01:32:19;;;;;;;155.60;95.60;;;;;;;-1.81;100.00;99563.11;109541;1250;59848;-72
2024/03/20 01:34:45;;;;;;;154.20;96.60;;;;;;;-1.84;100.00;99563.48;109540;1251;59987;-71
2024/03/20 01:37:12;;;;;;;151.70;94.60;;;;;;;-1.85;100.00;99561.57;109494;1251;60453;-72
2024/03/20 01:39:38;;;;;;;141.60;91.20;;;;;;;-1.86;100.00;99560.88;109558;1251;59887;-71
2024/03/20 01:42:04;;;;;;;144.50;91.80;;;;;;;-1.88;100.00;99555.16;109539;1251;60045;-71
2024/03/20 01:44:31;;;;;;;148.40;93.70;;;;;;;-1.93;100.00;99554.84;108744;1251;1002421;-71
2024/03/20 01:46:57;;;;;;;139.60;88.20;;;;;;;-1.96;100.00;99557.48;109501;1251;60018;-72
2024/03/20 01:49:25;;;;;;;151.80;93.60;;;;;;;-2.00;100.00;99552.10;109511;1251;59873;-72
2024/03/20 01:51:52;;;;;;;158.40;96.20;;;;;;;-2.02;100.00;99551.94;108792;1251;1002190;-72
2024/03/20 01:54:19;;;;;;;156.90;98.40;;;;;;;-2.00;100.00;99556.46;109373;1251;66885;-72
2024/03/20 01:56:46;;;;;;;153.30;99.00;;;;;;;-1.98;100.00;99552.27;108809;1251;1006281;-72
2024/03/20 01:59:12;;;;;;;161.90;104.40;;;;;;;-1.95;100.00;99551.89;109510;1251;59891;-70
2024/03/20 02:01:38;;;;;;;161.30;104.30;;;;;;;-1.91;100.00;99548.73;109595;1251;59792;-71
2024/03/20 02:04:05;;;;;;;159.20;102.20;;;;;;;-1.89;100.00;99546.63;109541;1251;59845;-72
2024/03/20 02:06:32;;;;;;;157.70;102.50;;;;;;;-1.88;100.00;99542.27;109527;1251;65759;-71
2024/03/20 02:09:00;;;;;;;146.20;94.10;;;;;;;-1.89;100.00;99539.83;109470;1251;60184;-71
2024/03/20 02:11:28;;;;;;;147.30;94.30;;;;;;;-1.92;100.00;99544.55;109525;1251;65267;-71
2024/03/20 02:13:56;;;;;;;142.90;94.10;;;;;;;-1.96;100.00;99545.98;109538;1251;59774;-71
2024/03/20 02:16:24;;;;;;;149.80;93.80;;;;;;;-2.00;100.00;99547.23;109493;1251;59831;-70
2024/03/20 02:18:51;;;;;;;142.80;92.70;;;;;;;-2.01;100.00;99543.94;109542;1251;68054;-72
2024/03/20 02:21:22;;;;;;;148.60;92.10;;;;;;;-2.01;100.00;99537.31;109557;1251;59852;-72
2024/03/20 02:23:50;;;;;;;147.00;94.30;;;;;;;-2.01;100.00;99538.70;109536;1251;64510;-71
2024/03/20 02:26:17;;;;;;;143.70;94.90;;;;;;;-2.02;100.00;99538.54;109522;1251;59737;-72
2024/03/20 02:28:44;;;;;;;146.70;99.60;;;;;;;-2.02;100.00;99542.73;109570;1251;59694;-72
2024/03/20 02:31:13;;;;;;;146.30;97.20;;;;;;;-2.03;100.00;99544.48;109531;1251;65336;-71
2024/03/20 02:33:40;;;;;;;153.90;103.30;;;;;;;-2.02;100.00;99544.64;108768;1253;1002090;-71
2024/03/20 02:36:07;;;;;;;158.70;104.40;;;;;;;-2.01;100.00;99548.80;108751;1251;1002190;-72
2024/03/20 02:38:39;;;;;;;154.60;103.70;;;;;;;-1.99;100.00;99548.27;109571;1251;60070;-71
2024/03/20 02:41:06;;;;;;;142.50;97.90;;;;;;;-1.98;100.00;99551.39;109548;1251;59675;-72
2024/03/20 02:43:34;;;;;;;149.70;96.50;;;;;;;-1.99;100.00;99554.54;109513;1250;65552;-72
2024/03/20 02:46:00;;;;;;;151.10;98.10;;;;;;;-2.02;100.00;99556.48;107976;1251;1002536;-71
2024/03/20 02:48:27;;;;;;;143.10;95.70;;;;;;;-2.08;100.00;99558.77;108590;1251;1002265;-72
2024/03/20 02:50:53;;;;;;;140.40;93.50;;;;;;;-2.13;100.00;99557.06;109531;1251;59871;-72
2024/03/20 02:53:19;;;;;;;143.60;98.10;;;;;;;-2.18;100.00;99559.52;109589;1251;59619;-72
2024/03/20 02:55:47;;;;;;;144.80;97.00;;;;;;;-2.24;100.00;99564.27;109536;1251;59812;-71
2024/03/20 02:58:16;;;;;;;144.70;93.90;;;;;;;-2.28;100.00;99566.91;109518;1251;60131;-71
2024/03/20 03:00:42;;;;;;;152.40;97.20;;;;;;;-2.31;100.00;99567.11;109498;1251;62832;-71
2024/03/20 03:03:08;;;;;;;147.80;101.60;;;;;;;-2.34;100.00;99567.98;109525;1251;59881;-72
2024/03/20 03:05:36;;;;;;;147.60;99.10;;;;;;;-2.37;100.00;99566.27;109547;1251;59860;-72
2024/03/20 03:08:03;;;;;;;153.10;99.40;;;;;;;-2.38;100.00;99567.32;108833;1251;1002562;-71
2024/03/20 03:10:30;;;;;;;157.90;103.40;;;;;;;-2.40;100.00;99572.02;108790;1250;1002040;-71
2024/03/20 03:12:56;;;;;;;156.70;104.20;;;;;;;-2.40;100.00;99571.15;109529;1251;59924;-71
2024/03/20 03:15:23;;;;;;;162.90;105.70;;;;;;;-2.41;100.00;99567.67;109537;1252;59758;-72
2024/03/20 03:17:56;;;;;;;152.00;100.80;;;;;;;-2.42;100.00;99565.96;109558;1251;59887;-73
2024/03/20 03:20:23;;;;;;;153.60;102.40;;;;;;;-2.43;100.00;99566.30;109477;1251;65808;-72
2024/03/20 03:22:50;;;;;;;144.20;100.20;;;;;;;-2.45;100.00;99570.84;109532;1251;59811;-71
2024/03/20 03:25:17;;;;;;;150.90;100.10;;;;;;;-2.46;100.00;99568.92;109478;1253;62826;-72
2024/03/20 03:27:44;;;;;;;154.20;102.10;;;;;;;-2.47;100.00;99569.11;109574;1251;60027;-72
2024/03/20 03:30:11;;;;;;;147.40;98.50;;;;;;;-2.48;100.00;99563.70;109623;1251;59724;-71
2024/03/20 03:32:38;;;;;;;147.20;97.60;;;;;;;-2.50;100.00;99561.46;109204;1251;66960;-71
2024/03/20 03:35:07;;;;;;;146.70;99.00;;;;;;;-2.52;100.00;99562.34;109526;1251;60286;-71
2024/03/20 03:37:34;;;;;;;143.50;95.10;;;;;;;-2.55;100.00;99567.92;108031;1251;2002313;-71
2024/03/20 03:40:01;;;;;;;144.70;95.00;;;;;;;-2.58;100.00;99567.94;109222;1251;60065;-72
2024/03/20 03:42:27;;;;;;;142.80;96.00;;;;;;;-2.63;100.00;99567.61;109541;1251;60000;-72
2024/03/20 03:44:53;;;;;;;145.30;93.40;;;;;;;-2.67;100.00;99563.28;109559;1251;59841;-71
2024/03/20 03:47:20;;;;;;;143.30;93.80;;;;;;;-2.70;100.00;99562.77;109529;1251;60178;-72
2024/03/20 03:49:47;;;;;;;137.20;88.20;;;;;;;-2.74;100.00;99558.62;109537;1251;63876;-71
2024/03/20 03:52:16;;;;;;;138.10;92.40;;;;;;;-2.78;100.00;99561.42;109551;1251;59831;-72
2024/03/20 03:54:42;;;;;;;142.00;94.50;;;;;;;-2.80;100.00;99555.16;109543;1254;59860;-71
2024/03/20 03:57:09;;;;;;;140.00;91.90;;;;;;;-2.83;100.00;99552.04;109493;1252;60055;-71
2024/03/20 03:59:35;;;;;;;136.20;87.90;;;;;;;-2.88;100.00;99556.23;109550;1251;59743;-71
2024/03/20 04:02:01;;;;;;;140.70;88.60;;;;;;;-2.93;100.00;99560.42;109527;1251;59827;-71
2024/03/20 04:04:28;;;;;;;130.20;87.60;;;;;;;-2.98;100.00;99563.39;109547;1251;59856;-71
2024/03/20 04:06:55;;;;;;;151.20;95.80;;;;;;;-2.99;100.00;99557.67;109565;1251;59849;-72
2024/03/20 04:09:21;;;;;;;147.00;95.90;;;;;;;-3.00;100.00;99557.66;109561;1253;59821;-71
2024/03/20 04:11:48;;;;;;;151.80;99.90;;;;;;;-3.00;100.00;99554.19;109534;1251;59741;-71
2024/03/20 04:14:15;;;;;;;143.10;95.00;;;;;;;-3.00;100.00;99552.63;109533;1251;59845;-71
2024/03/20 04:16:43;;;;;;;147.90;96.30;;;;;;;-3.00;100.00;99553.67;108058;1251;2002328;-71
2024/03/20 04:19:10;;;;;;;151.00;98.10;;;;;;;-3.01;100.00;99558.54;109586;1251;60009;-72
2024/03/20 04:21:39;;;;;;;164.90;111.30;;;;;;;-3.00;100.00;99563.23;109554;1251;66866;-72
2024/03/20 04:24:05;;;;;;;168.30;109.50;;;;;;;-2.96;100.00;99565.83;108793;1251;1003023;-72
2024/03/20 04:26:32;;;;;;;157.60;109.20;;;;;;;-2.93;100.00;99565.11;109555;1251;65211;-71
2024/03/20 04:28:58;;;;;;;173.70;114.70;;;;;;;-2.92;100.00;99567.20;109521;1251;59740;-72
2024/03/20 04:31:25;;;;;;;176.10;117.10;;;;;;;-2.91;100.00;99570.67;109575;1251;59918;-71
2024/03/20 04:33:51;;;;;;;159.70;108.80;;;;;;;-2.90;100.00;99569.81;109571;1251;59749;-72
2024/03/20 04:36:17;;;;;;;165.80;108.90;;;;;;;-2.87;100.00;99570.14;109547;1251;59798;-72
2024/03/20 04:38:44;;;;;;;158.10;106.30;;;;;;;-2.85;100.00;99571.00;109548;1252;59850;-71
2024/03/20 04:41:10;;;;;;;155.50;104.60;;;;;;;-2.84;100.00;99573.27;109528;1251;59775;-71
2024/03/20 04:43:36;;;;;;;150.30;101.10;;;;;;;-2.86;100.00;99576.58;109481;1251;59834;-72
2024/03/20 04:46:03;;;;;;;148.60;102.10;;;;;;;-2.89;100.00;99576.94;109552;1251;59824;-73
2024/03/20 04:48:29;;;;;;;148.40;100.50;;;;;;;-2.91;100.00;99576.23;109545;1251;59826;-71
2024/03/20 04:50:56;;;;;;;152.20;101.70;;;;;;;-2.92;100.00;99577.28;109550;1251;59988;-72
2024/03/20 04:53:23;;;;;;;157.30;105.10;;;;;;;-2.93;100.00;99577.80;108781;1251;1002502;-72
2024/03/20 04:55:50;;;;;;;158.60;104.30;;;;;;;-2.93;100.00;99580.59;108441;1251;1003044;-71
2024/03/20 04:58:16;;;;;;;145.30;99.70;;;;;;;-2.93;100.00;99579.38;108754;1251;1002381;-72
2024/03/20 05:00:42;;;;;;;149.30;104.60;;;;;;;-2.93;100.00;99577.29;109547;1251;59760;-71
2024/03/20 05:03:09;;;;;;;157.40;104.40;;;;;;;-2.91;100.00;99574.32;109544;1252;59881;-72
2024/03/20 05:05:35;;;;;;;145.20;95.20;;;;;;;-2.89;100.00;99576.58;109536;1251;59813;-72
2024/03/20 05:08:02;;;;;;;141.80;96.00;;;;;;;-2.82;100.00;99573.08;109578;1251;59845;-72
2024/03/20 05:10:28;;;;;;;145.00;93.50;;;;;;;-2.73;100.00;99573.23;109611;1251;59822;-72
2024/03/20 05:12:54;;;;;;;150.10;100.70;;;;;;;-2.62;100.00;99577.35;108802;1251;1014868;-72
2024/03/20 05:15:21;;;;;;;136.80;94.50;;;;;;;-2.50;100.00;99572.94;109546;1251;59796;-71
2024/03/20 05:17:47;;;;;;;133.30;95.30;;;;;;;-2.37;100.00;99574.10;109534;1253;59797;-71
2024/03/20 05:20:15;;;;;;;143.70;100.20;;;;;;;-2.22;100.00;99576.09;109551;1254;59647;-72
2024/03/20 05:22:41;;;;;;;142.20;102.20;;;;;;;-2.05;100.00;99574.77;109562;1251;66849;-72
2024/03/20 05:25:08;;;;;;;153.20;100.90;;;;;;;-1.84;100.00;99571.14;109578;1251;59817;-72
2024/03/20 05:27:34;;;;;;;139.80;96.90;;;;;;;-1.64;100.00;99569.60;109335;1254;62570;-73
2024/03/20 05:30:02;;;;;;;131.90;93.30;;;;;;;-1.49;100.00;99568.59;109508;1252;59795;-72
2024/03/20 05:32:28;;;;;;;125.50;89.30;;;;;;;-1.31;100.00;99568.77;109539;1250;59739;-71
2024/03/20 05:34:54;;;;;;;124.20;87.90;;;;;;;-1.12;100.00;99563.70;109591;1251;59908;-71
2024/03/20 05:37:21;;;;;;;122.40;88.20;;;;;;;-0.93;100.00;99565.41;109541;1251;60679;-71
2024/03/20 05:39:47;;;;;;;119.00;85.90;;;;;;;-0.74;100.00;99569.38;109568;1251;59799;-72
2024/03/20 05:42:14;;;;;;;122.10;87.00;;;;;;;-0.56;100.00;99567.23;109486;1252;59829;-70
2024/03/20 05:44:40;;;;;;;115.40;84.60;;;;;;;-0.39;100.00;99569.97;109560;1251;59929;-72
2024/03/20 05:47:06;;;;;;;116.00;84.90;;;;;;;-0.25;100.00;99571.89;109540;1251;59794;-71
2024/03/20 05:49:33;;;;;;;115.70;85.60;;;;;;;-0.07;100.00;99567.79;109589;1250;60061;-71
2024/03/20 05:51:59;;;;;;;114.60;82.80;;;;;;;0.13;100.00;99569.23;109542;1251;59830;-71
2024/03/20 05:54:25;;;;;;;110.00;80.30;;;;;;;0.35;100.00;99565.92;109535;1251;59877;-71
2024/03/20 05:56:52;;;;;;;109.50;81.30;;;;;;;0.49;100.00;99569.52;109611;1251;60088;-71
2024/03/20 05:59:18;;;;;;;113.10;84.50;;;;;;;0.48;100.00;99572.34;109594;1251;60027;-71
2024/03/20 06:01:45;;;;;;;112.70;82.30;;;;;;;0.50;100.00;99573.88;109257;1251;59910;-72
2024/03/20 06:04:11;;;;;;;120.30;88.00;;;;;;;0.59;100.00;99571.82;109522;1251;59949;-72
2024/03/20 06:06:37;;;;;;;123.70;93.70;;;;;;;0.74;100.00;99569.62;109545;1253;60085;-71
2024/03/20 06:09:04;;;;;;;125.60;92.40;;;;;;;0.88;100.00;99568.67;108820;1251;1006376;-72
2024/03/20 06:11:31;;;;;;;123.60;93.20;;;;;;;0.97;100.00;99572.89;109550;1251;59758;-71
2024/03/20 06:13:59;;;;;;;122.10;94.40;;;;;;;1.03;100.00;99580.30;109524;1251;60065;-72
2024/03/20 06:16:26;;;;;;;126.70;95.90;;;;;;;1.08;100.00;99582.98;109548;1251;62497;-72
2024/03/20 06:18:52;;;;;;;129.40;93.20;;;;;;;1.16;100.00;99584.41;109562;1251;59876;-71
2024/03/20 06:21:18;;;;;;;116.30;89.90;;;;;;;1.24;100.00;99581.98;109558;1251;59944;-72
2024/03/20 06:23:45;;;;;;;126.20;94.40;;;;;;;1.33;100.00;99586.54;109602;1253;59869;-72
2024/03/20 06:26:11;;;;;;;116.70;88.60;;;;;;;1.42;100.00;99584.98;109538;1254;59797;-72
2024/03/20 06:28:37;;;;;;;124.60;89.70;;;;;;;1.50;100.00;99579.19;109559;1251;59945;-72
2024/03/20 06:31:05;;;;;;;122.30;88.00;;;;;;;1.55;100.00;99575.92;109287;1251;59841;-72
2024/03/20 06:33:31;;;;;;;110.30;84.10;;;;;;;1.60;100.00;99576.20;109548;1251;59716;-72
2024/03/20 06:35:58;;;;;;;112.40;81.30;;;;;;;1.64;100.00;99575.73;109239;1251;65237;-72
2024/03/20 06:38:24;;;;;;;104.80;75.80;;;;;;;1.72;100.00;99578.02;109544;1252;59845;-71
2024/03/20 06:40:51;;;;;;;95.80;69.40;;;;;;;1.79;100.00;99579.63;109574;1251;59844;-72
2024/03/20 06:43:17;;;;;;;95.40;67.00;;;;;;;1.87;100.00;99582.96;109545;1251;59762;-72
2024/03/20 06:45:49;;;;;;;95.20;69.20;;;;;;;1.97;100.00;99583.27;109537;1251;59924;-72
2024/03/20 06:48:17;;;;;;;93.40;68.80;;;;;;;2.06;100.00;99584.27;109557;1251;65258;-72
2024/03/20 06:50:46;;;;;;;103.50;75.40;;;;;;;2.14;100.00;99588.81;109591;1252;59855;-72
2024/03/20 06:53:14;;;;;;;97.70;70.30;;;;;;;2.25;100.00;99594.89;109524;1251;62851;-72
2024/03/20 06:55:43;;;;;;;90.10;66.60;;;;;;;2.31;100.00;99598.08;109519;1251;59741;-71
2024/03/20 06:58:13;;;;;;;96.20;68.10;;;;;;;2.33;100.00;99593.98;108780;1252;1002760;-71
2024/03/20 07:00:46;;;;;;;100.60;70.70;;;;;;;2.39;100.00;99594.57;109563;1251;65296;-72
2024/03/20 07:03:16;;;;;;;86.40;63.00;;;;;;;2.49;100.00;99592.21;108742;1251;1003004;-72
2024/03/20 07:05:43;;;;;;;97.50;68.00;;;;;;;2.57;100.00;99587.27;108756;1255;1002448;-72
2024/03/20 07:08:09;;;;;;;93.70;66.60;;;;;;;2.63;100.00;99587.66;109534;1251;59801;-72
2024/03/20 07:10:39;;;;;;;96.90;71.80;;;;;;;2.71;100.00;99589.20;109347;1256;59882;-72
2024/03/20 07:13:06;;;;;;;94.80;66.20;;;;;;;2.77;100.00;99591.67;109509;1253;66987;-72
2024/03/20 07:15:36;;;;;;;96.20;67.30;;;;;;;2.82;100.00;99598.56;109544;1251;59861;-72
2024/03/20 07:18:03;;;;;;;88.90;65.60;;;;;;;2.89;100.00;99599.62;109523;1251;62854;-72
2024/03/20 07:20:30;;;;;;;88.60;66.50;;;;;;;2.98;100.00;99598.86;109222;1256;59788;-72
2024/03/20 07:23:01;;;;;;;91.30;68.90;;;;;;;3.12;100.00;99595.68;109576;1251;59902;-71
2024/03/20 07:25:27;;;;;;;85.20;64.90;;;;;;;3.26;100.00;99589.50;109542;1251;66876;-73
2024/03/20 07:27:54;;;;;;;86.30;61.60;;;;;;;3.38;100.00;99591.81;109510;1253;59738;-72
2024/03/20 07:30:21;;;;;;;83.10;61.30;;;;;;;3.46;100.00;99596.67;109536;1251;62878;-72
2024/03/20 07:32:48;;;;;;;79.40;55.40;;;;;;;3.55;100.00;99597.81;109513;1255;59828;-71
2024/03/20 07:35:24;;;;;;;75.20;54.20;;;;;;;3.65;100.00;99598.93;109543;1251;60083;-72
2024/03/20 07:37:51;;;;;;;72.30;53.70;;;;;;;3.77;100.00;99597.70;109510;1251;66878;-71
2024/03/20 07:40:17;;;;;;;67.70;51.80;;;;;;;3.90;100.00;99595.57;109534;1251;60021;-72
2024/03/20 07:42:44;;;;;;;63.00;46.80;;;;;;;4.01;100.00;99592.60;109552;1251;64013;-72
2024/03/20 07:45:11;;;;;;;65.80;47.10;;;;;;;4.08;100.00;99589.23;109537;1251;60086;-72
2024/03/20 07:47:38;;;;;;;70.00;49.60;;;;;;;4.16;100.00;99585.98;109527;1251;59673;-72
2024/03/20 07:50:05;;;;;;;75.00;52.80;;;;;;;4.27;100.00;99588.45;109539;1252;66551;-71
2024/03/20 07:52:31;;;;;;;66.40;47.50;;;;;;;4.39;100.00;99588.42;109541;1253;60029;-71
2024/03/20 07:54:59;;;;;;;70.00;47.50;;;;;;;4.50;100.00;99593.34;109176;1253;59910;-71
2024/03/20 07:57:26;;;;;;;67.80;48.10;;;;;;;4.58;100.00;99590.77;109485;1253;59798;-71
2024/03/20 07:59:53;;;;;;;69.70;48.60;;;;;;;4.68;100.00;99590.10;109558;1252;60273;-71
2024/03/20 08:02:20;;;;;;;66.70;47.60;;;;;;;4.74;100.00;99585.16;109480;1252;67865;-71
2024/03/20 08:04:47;;;;;;;64.80;46.80;;;;;;;4.83;100.00;99586.77;109500;1252;60152;-71
2024/03/20 08:07:14;;;;;;;67.50;48.80;;;;;;;4.94;100.00;99589.20;109461;1254;63760;-70
2024/03/20 08:09:40;;;;;;;67.30;48.00;;;;;;;5.04;100.00;99587.30;109499;1253;59865;-71
2024/03/20 08:12:06;;;;;;;61.20;45.30;;;;;;;5.13;100.00;99582.94;109222;1254;59893;-72
2024/03/20 08:14:33;;;;;;;65.30;47.70;;;;;;;5.20;100.00;99583.57;109503;1252;59865;-72
2024/03/20 08:16:59;;;;;;;67.80;48.40;;;;;;;5.29;100.00;99582.89;109460;1252;59810;-72
2024/03/20 08:19:27;;;;;;;62.80;46.50;;;;;;;5.41;100.00;99582.10;109274;1254;60236;-73
2024/03/20 08:21:53;;;;;;;62.80;46.70;;;;;;;5.53;100.00;99579.36;109467;1254;59849;-72
2024/03/20 08:24:19;;;;;;;61.80;47.10;;;;;;;5.65;100.00;99579.27;109480;1252;59771;-72
2024/03/20 08:26:46;;;;;;;65.10;49.50;;;;;;;5.73;100.00;99572.83;109489;1255;59821;-72
2024/03/20 08:29:12;;;;;;;58.20;44.80;;;;;;;5.71;100.00;99567.59;109512;1253;59802;-72
2024/03/20 08:31:39;;;;;;;63.20;45.00;;;;;;;5.71;100.00;99569.52;109457;1253;59868;-71
2024/03/20 08:34:05;;;;;;;62.10;46.40;;;;;;;5.77;100.00;99569.83;109481;1252;59749;-72
2024/03/20 08:36:31;;;;;;;56.30;41.90;;;;;;;5.81;100.00;99564.20;109488;1255;59793;-72
2024/03/20 08:38:58;;;;;;;51.30;39.50;;;;;;;5.94;100.00;99563.39;109520;1253;59821;-72
2024/03/20 08:41:24;;;;;;;52.50;41.80;;;;;;;6.07;100.00;99565.51;109465;1252;59891;-72
2024/03/20 08:43:50;;;;;;;52.40;37.60;;;;;;;6.18;100.00;99562.43;109500;1254;59903;-71
2024/03/20 08:46:19;;;;;;;54.50;40.50;;;;;;;6.29;100.00;99557.60;109475;1253;59791;-72
2024/03/20 08:48:45;;;;;;;59.90;44.60;;;;;;;6.41;100.00;99552.02;109473;1253;59818;-71
2024/03/20 08:51:12;;;;;;;57.90;45.50;;;;;;;6.52;100.00;99548.70;109510;1253;60001;-72
2024/03/20 08:53:38;;;;;;;56.40;44.70;;;;;;;6.63;100.00;99543.69;109509;1254;59818;-73
2024/03/20 08:56:06;;;;;;;60.80;45.30;;;;;;;6.72;100.00;99536.02;109467;1254;59816;-72
2024/03/20 08:58:32;;;;;;;58.70;43.40;;;;;;;6.79;100.00;99529.55;109445;1253;59805;-72
2024/03/20 09:00:58;;;;;;;52.30;39.90;;;;;;;6.85;100.00;99534.99;109509;1252;59760;-72
2024/03/20 09:03:25;;;;;;;50.60;38.70;;;;;;;6.95;100.00;99537.90;109509;1252;59817;-72
2024/03/20 09:05:51;;;;;;;48.90;39.50;;;;;;;7.02;100.00;99541.48;109467;1253;59800;-71
2024/03/20 09:08:18;;;;;;;55.60;41.20;;;;;;;7.10;100.00;99539.67;109482;1253;59770;-72
2024/03/20 09:10:44;;;;;;;50.10;41.00;;;;;;;7.18;100.00;99541.83;109518;1254;59824;-72
2024/03/20 09:13:10;;;;;;;47.90;38.20;;;;;;;7.30;100.00;99540.39;109489;1254;59864;-72
2024/03/20 09:15:39;;;;;;;46.70;36.50;;;;;;;7.47;100.00;99541.77;109484;1253;67643;-72
2024/03/20 09:18:06;;;;;;;39.30;30.40;;;;;;;7.62;100.00;99544.95;109518;1254;61420;-72
2024/03/20 09:20:33;;;;;;;35.60;29.90;;;;;;;7.75;100.00;99545.27;109401;1252;64443;-72
2024/03/20 09:23:01;;;;;;;35.80;27.50;;;;;;;7.84;100.00;99545.37;109466;1254;59836;-71
2024/03/20 09:25:27;;;;;;;30.60;24.50;;;;;;;7.89;99.21;99545.48;109497;1253;59711;-72
2024/03/20 09:27:54;;;;;;;35.80;26.70;;;;;;;7.90;97.23;99541.54;109516;1253;66567;-71
2024/03/20 09:30:21;;;;;;;31.90;27.20;;;;;;;7.89;93.88;99541.96;109481;1254;59839;-70
2024/03/20 09:32:47;;;;;;;36.30;28.10;;;;;;;7.83;92.41;99534.80;109451;1252;62594;-72
2024/03/20 09:35:13;;;;;;;37.20;27.20;;;;;;;7.85;93.70;99535.21;109168;1254;59912;-72
2024/03/20 09:37:40;;;;;;;36.10;28.50;;;;;;;7.96;93.84;99535.44;109503;1253;59904;-72
2024/03/20 09:40:11;;;;;;;36.00;28.50;;;;;;;8.11;94.60;99532.23;109510;1254;65666;-72
2024/03/20 09:42:38;;;;;;;34.60;28.50;;;;;;;8.26;94.90;99532.02;109491;1253;60109;-73
2024/03/20 09:45:07;;;;;;;37.10;29.10;;;;;;;8.39;94.86;99531.42;109460;1254;64108;-72
2024/03/20 09:47:35;;;;;;;31.80;26.50;;;;;;;8.53;93.70;99531.45;109468;1252;59739;-71
2024/03/20 09:50:02;;;;;;;31.60;25.90;;;;;;;8.66;92.97;99530.44;109438;1254;60444;-71
2024/03/20 09:52:29;;;;;;;32.90;26.30;;;;;;;8.78;92.49;99526.62;109445;1253;65436;-72
2024/03/20 09:54:56;;;;;;;34.90;27.30;;;;;;;8.89;91.09;99521.66;109471;1254;60755;-71
2024/03/20 09:57:26;;;;;;;35.10;27.80;;;;;;;8.98;91.66;99518.35;109428;1252;64135;-71
2024/03/20 09:59:53;;;;;;;30.60;25.60;;;;;;;9.09;90.21;99516.19;109449;1253;59783;-72
2024/03/20 10:02:22;;;;;;;29.90;24.30;;;;;;;9.19;90.27;99512.50;109349;1253;170086;-72
2024/03/20 10:04:52;;;;;;;32.80;25.70;;;;;;;9.29;88.81;99508.91;109444;1254;66497;-72
2024/03/20 10:07:18;;;;;;;28.90;24.50;;;;;;;9.38;88.39;99508.80;109517;1252;59807;-72
2024/03/20 10:09:45;;;;;;;24.10;19.10;;;;;;;9.50;87.15;99508.66;109468;1254;60638;-73
2024/03/20 10:12:14;;;;;;;23.80;17.10;;;;;;;9.55;85.16;99505.23;109485;1253;59746;-71
2024/03/20 10:14:41;;;;;;;20.90;16.90;;;;;;;9.57;82.83;99502.97;109543;1252;59680;-72
2024/03/20 10:17:15;;;;;;;22.50;17.90;;;;;;;9.55;82.42;99497.05;109448;1252;66866;-72
2024/03/20 10:19:42;;;;;;;23.30;18.80;;;;;;;9.58;81.46;99496.34;109480;1252;60071;-72
2024/03/20 10:22:09;;;;;;;25.60;21.40;;;;;;;9.57;81.27;99493.73;109449;1254;62581;-72
2024/03/20 10:24:36;;;;;;;26.00;20.00;;;;;;;9.60;80.71;99491.80;109438;1252;59773;-72
2024/03/20 10:27:05;;;;;;;27.60;20.40;;;;;;;9.64;80.93;99489.83;109533;1253;59843;-72
2024/03/20 10:29:33;;;;;;;22.20;17.90;;;;;;;9.69;80.04;99487.04;109479;1252;65307;-72
2024/03/20 10:32:01;;;;;;;24.80;18.30;;;;;;;9.76;80.02;99486.66;109451;1254;60308;-72
2024/03/20 10:34:28;;;;;;;23.60;17.10;;;;;;;9.78;75.90;99484.42;109512;1253;64114;-72
2024/03/20 10:36:55;;;;;;;20.30;17.20;;;;;;;9.73;76.65;99476.17;109458;1252;59817;-72
2024/03/20 10:39:23;;;;;;;23.60;19.10;;;;;;;9.86;77.94;99474.04;109449;1253;59797;-73
2024/03/20 10:41:54;;;;;;;22.30;18.10;;;;;;;10.07;78.56;99472.48;109458;1253;75388;-72
2024/03/20 10:44:22;;;;;;;22.70;18.20;;;;;;;10.22;76.82;99467.56;109473;1253;67272;-72
2024/03/20 10:46:54;;;;;;;22.10;19.10;;;;;;;10.21;75.21;99469.40;109262;1254;62621;-72
2024/03/20 10:49:22;;;;;;;21.50;18.10;;;;;;;10.19;74.77;99471.45;109450;1252;59858;-72
2024/03/20 10:51:51;;;;;;;24.30;18.50;;;;;;;10.21;74.76;99470.79;109391;1252;59894;-72
2024/03/20 10:54:19;;;;;;;19.40;16.50;;;;;;;10.22;73.71;99474.66;109505;1252;66843;-72
2024/03/20 10:56:55;;;;;;;19.50;16.40;;;;;;;10.26;73.63;99470.70;109310;1253;60833;-72
2024/03/20 10:59:23;;;;;;;19.20;15.60;;;;;;;10.33;73.65;99461.77;109492;1254;62827;-71